Time;durP1;ratioP1;P1;durP2;ratioP2;P2;SDS_P1;SDS_P2;PMS_P1;PMS_P2;Temp;Humidity;BMP_temperature;BMP_pressure;BME280_temperature;BME280_humidity;BME280_pressure;Samples;Min_cycle;Max_cycle;Signal;HPM_P1;HPM_P2
2022/03/03 00:01:38;;;;;;;18.17;15.03;;;3.60;93.80;;;;;;5027718;28;20204;-79
2022/03/03 00:04:05;;;;;;;19.57;14.67;;;3.70;94.20;;;;;;5019080;28;20202;-79
2022/03/03 00:06:34;;;;;;;18.67;14.63;;;3.70;95.00;;;;;;5023722;28;20217;-79
2022/03/03 00:09:02;;;;;;;21.73;15.43;;;3.90;94.90;;;;;;5020645;28;20214;-79
2022/03/03 00:11:32;;;;;;;21.07;15.07;;;3.80;94.00;;;;;;5029541;28;20208;-79
2022/03/03 00:14:00;;;;;;;19.83;15.17;;;3.80;94.60;;;;;;5027698;28;20212;-79
2022/03/03 00:16:28;;;;;;;18.80;15.00;;;3.90;94.30;;;;;;5027331;28;20211;-79
2022/03/03 00:18:56;;;;;;;18.70;14.80;;;4.10;94.00;;;;;;5026484;28;20713;-79
2022/03/03 00:21:24;;;;;;;19.40;14.93;;;4.00;94.30;;;;;;5023953;28;20210;-79
2022/03/03 00:23:59;;;;;;;15.90;13.97;;;4.10;94.00;;;;;;5023899;28;20194;-79
2022/03/03 00:26:27;;;;;;;23.77;15.87;;;4.20;93.60;;;;;;5022313;28;20209;-79
2022/03/03 00:28:54;;;;;;;19.20;15.20;;;4.30;93.20;;;;;;5038522;28;20226;-79
2022/03/03 00:31:25;;;;;;;22.43;16.27;;;4.30;92.50;;;;;;5020408;28;20277;-79
2022/03/03 00:33:52;;;;;;;21.60;15.60;;;4.80;93.00;;;;;;5025610;28;20215;-79
2022/03/03 00:36:21;;;;;;;20.77;15.60;;;4.70;90.70;;;;;;5017781;28;20212;-79
2022/03/03 00:38:49;;;;;;;19.47;16.27;;;4.50;90.90;;;;;;5024882;28;20219;-79
2022/03/03 00:41:18;;;;;;;18.20;14.93;;;4.20;91.70;;;;;;5025575;28;20214;-79
2022/03/03 00:43:45;;;;;;;23.53;17.20;;;4.30;92.50;;;;;;5021843;28;20209;-79
2022/03/03 00:46:13;;;;;;;20.80;16.27;;;4.10;92.40;;;;;;5030697;28;20201;-80
2022/03/03 00:48:40;;;;;;;23.43;15.97;;;4.10;92.70;;;;;;5032323;28;20299;-80
2022/03/03 00:51:08;;;;;;;21.30;15.60;;;4.20;92.60;;;;;;5020264;28;20193;-80
2022/03/03 00:53:38;;;;;;;19.10;15.13;;;4.10;92.70;;;;;;5032449;28;20556;-80
2022/03/03 00:56:06;;;;;;;22.60;16.23;;;4.30;92.60;;;;;;5030471;28;20223;-80
2022/03/03 00:58:33;;;;;;;21.80;16.40;;;4.40;92.40;;;;;;5032643;28;20221;-80
2022/03/03 01:01:04;;;;;;;23.23;16.73;;;4.70;91.90;;;;;;5034546;28;20207;-80
2022/03/03 01:03:31;;;;;;;24.27;17.60;;;4.60;92.60;;;;;;5027321;28;20229;-80
2022/03/03 01:05:59;;;;;;;20.93;16.17;;;4.70;91.00;;;;;;5025893;28;20216;-79
2022/03/03 01:08:26;;;;;;;22.47;17.00;;;4.30;92.50;;;;;;5029841;28;20231;-79
2022/03/03 01:10:55;;;;;;;21.73;17.33;;;4.20;91.80;;;;;;5025439;28;20575;-79
2022/03/03 01:13:23;;;;;;;20.33;15.20;;;4.30;91.60;;;;;;5020683;28;20201;-79
2022/03/03 01:15:51;;;;;;;20.67;15.63;;;4.40;91.40;;;;;;5024977;28;20203;-79
2022/03/03 01:18:18;;;;;;;22.40;16.47;;;4.20;91.60;;;;;;5022550;28;20223;-80
2022/03/03 01:20:45;;;;;;;23.47;16.40;;;4.30;92.70;;;;;;5026569;28;20205;-80
2022/03/03 01:23:13;;;;;;;20.80;16.00;;;4.20;92.70;;;;;;5027073;28;20210;-80
2022/03/03 01:25:40;;;;;;;21.43;16.17;;;4.20;92.60;;;;;;5027204;28;20221;-80
2022/03/03 01:28:09;;;;;;;21.27;16.33;;;4.20;92.40;;;;;;5016809;28;20226;-80
2022/03/03 01:30:36;;;;;;;21.87;15.67;;;4.20;92.60;;;;;;5026046;28;20198;-80
2022/03/03 01:33:05;;;;;;;22.47;15.70;;;4.50;91.80;;;;;;5023957;28;20198;-79
2022/03/03 01:35:32;;;;;;;21.50;15.53;;;4.30;91.30;;;;;;5025795;28;20205;-79
2022/03/03 01:38:00;;;;;;;22.90;16.03;;;4.30;92.00;;;;;;5028272;28;20674;-79
2022/03/03 01:40:28;;;;;;;21.23;16.17;;;4.10;92.10;;;;;;5023047;28;20240;-79
2022/03/03 01:42:55;;;;;;;19.00;15.93;;;4.10;93.00;;;;;;5030147;28;20573;-79
2022/03/03 01:45:24;;;;;;;21.90;17.00;;;4.30;92.70;;;;;;5027356;28;20206;-79
2022/03/03 01:47:52;;;;;;;20.80;16.43;;;4.50;91.50;;;;;;5025852;28;20197;-79
2022/03/03 01:50:19;;;;;;;25.63;18.03;;;4.60;92.40;;;;;;5028512;28;20194;-79
2022/03/03 01:52:47;;;;;;;22.13;16.53;;;4.60;91.30;;;;;;5013244;28;20204;-79
2022/03/03 01:55:14;;;;;;;18.63;14.73;;;4.30;92.00;;;;;;5012708;28;20202;-79
2022/03/03 01:57:42;;;;;;;20.83;15.93;;;4.40;92.10;;;;;;5028605;28;20567;-79
2022/03/03 02:00:10;;;;;;;19.40;15.77;;;4.40;91.50;;;;;;5029363;28;20577;-79
2022/03/03 02:02:42;;;;;;;22.70;16.20;;;4.40;91.60;;;;;;5031900;28;20207;-79
2022/03/03 02:05:10;;;;;;;21.70;16.30;;;4.10;92.30;;;;;;5024845;28;20197;-79
2022/03/03 02:07:37;;;;;;;23.33;17.27;;;3.90;93.50;;;;;;5033282;28;20197;-79
2022/03/03 02:10:06;;;;;;;20.67;15.63;;;3.60;94.40;;;;;;5030491;28;20207;-79
2022/03/03 02:12:33;;;;;;;22.90;16.57;;;3.20;95.70;;;;;;5050493;28;20657;-79
2022/03/03 02:15:01;;;;;;;20.53;16.73;;;3.60;96.90;;;;;;5027946;28;20204;-79
2022/03/03 02:17:29;;;;;;;21.00;15.80;;;3.00;98.80;;;;;;5024965;28;20556;-79
2022/03/03 02:19:59;;;;;;;20.63;15.97;;;2.70;99.40;;;;;;5020573;28;20218;-79
2022/03/03 02:22:33;;;;;;;20.37;15.37;;;3.00;99.90;;;;;;5024499;28;20203;-79
2022/03/03 02:25:01;;;;;;;19.33;15.10;;;3.30;98.40;;;;;;5031002;28;20207;-79
2022/03/03 02:27:28;;;;;;;22.63;15.77;;;3.40;98.00;;;;;;5046960;28;20218;-79
2022/03/03 02:29:57;;;;;;;22.03;15.67;;;3.50;98.00;;;;;;5030214;28;20223;-79
2022/03/03 02:32:25;;;;;;;21.37;15.43;;;3.70;96.40;;;;;;5042936;22;20220;-78
2022/03/03 02:34:52;;;;;;;19.07;15.47;;;3.80;96.10;;;;;;4993908;28;20207;-79
2022/03/03 02:37:19;;;;;;;21.90;15.80;;;3.80;94.90;;;;;;4993160;28;20202;-79
2022/03/03 02:39:48;;;;;;;22.10;15.93;;;3.70;94.70;;;;;;4994823;28;20231;-78
2022/03/03 02:42:16;;;;;;;21.27;15.40;;;3.60;95.10;;;;;;4992973;28;20247;-79
2022/03/03 02:44:43;;;;;;;21.93;16.33;;;3.60;95.00;;;;;;5011490;28;20557;-78
2022/03/03 02:47:11;;;;;;;20.87;15.00;;;3.60;94.90;;;;;;4987047;28;20212;-79
2022/03/03 02:49:38;;;;;;;23.57;15.80;;;3.70;95.00;;;;;;4993136;28;20200;-79
2022/03/03 02:52:06;;;;;;;22.30;15.30;;;3.60;94.80;;;;;;4996849;28;20228;-79
2022/03/03 02:54:34;;;;;;;21.00;15.27;;;3.50;95.10;;;;;;5001277;28;20648;-80
2022/03/03 02:59:47;;;;;;;21.43;16.40;;;3.30;96.20;;;;;;4999569;28;20210;-81
2022/03/03 03:02:15;;;;;;;21.57;16.00;;;3.20;96.40;;;;;;5006011;28;20232;-81
2022/03/03 03:04:42;;;;;;;23.40;16.07;;;3.20;96.80;;;;;;4992938;28;20196;-80
2022/03/03 03:07:28;;;;;;;21.27;16.60;;;3.20;96.80;;;;;;5002419;28;20201;-81
2022/03/03 03:09:55;;;;;;;19.57;15.57;;;3.20;96.90;;;;;;4997153;28;20195;-80
2022/03/03 03:12:27;;;;;;;19.70;14.93;;;3.10;97.20;;;;;;4994643;28;20232;-80
2022/03/03 03:14:55;;;;;;;18.60;14.60;;;3.10;97.40;;;;;;4992073;28;20202;-81
2022/03/03 03:17:23;;;;;;;17.73;14.83;;;3.20;97.40;;;;;;4992952;28;20219;-81
2022/03/03 03:19:51;;;;;;;21.27;16.07;;;3.20;96.90;;;;;;4993465;28;20223;-81
2022/03/03 03:22:22;;;;;;;18.33;15.67;;;3.30;96.60;;;;;;4992304;28;20223;-81
2022/03/03 03:24:49;;;;;;;19.97;15.60;;;3.20;96.60;;;;;;4998464;28;20195;-80
2022/03/03 03:27:17;;;;;;;20.60;15.83;;;3.20;96.50;;;;;;4990231;28;20212;-81
2022/03/03 03:29:45;;;;;;;18.30;14.77;;;3.20;97.00;;;;;;4998422;28;20207;-80
2022/03/03 03:32:13;;;;;;;18.67;14.97;;;3.10;97.30;;;;;;4988565;28;20234;-80
2022/03/03 03:34:41;;;;;;;20.47;15.30;;;3.10;97.40;;;;;;5005149;28;20203;-81
2022/03/03 03:37:08;;;;;;;20.17;15.10;;;3.10;97.80;;;;;;4992913;28;20202;-80
2022/03/03 03:39:36;;;;;;;19.43;13.93;;;3.10;98.10;;;;;;5009000;28;20231;-81
2022/03/03 03:42:04;;;;;;;18.73;14.57;;;3.00;97.90;;;;;;4991564;28;20220;-80
2022/03/03 03:44:32;;;;;;;18.23;15.03;;;3.10;97.60;;;;;;4998323;28;20201;-80
2022/03/03 03:47:00;;;;;;;18.53;14.23;;;3.00;97.30;;;;;;4988497;28;20224;-81
2022/03/03 03:49:28;;;;;;;17.53;14.03;;;3.20;97.00;;;;;;4992868;28;20199;-81
2022/03/03 03:51:55;;;;;;;21.07;15.67;;;3.00;96.50;;;;;;4992240;28;20222;-81
2022/03/03 03:54:26;;;;;;;17.80;14.33;;;2.60;98.70;;;;;;4999104;28;20210;-80
2022/03/03 03:56:53;;;;;;;18.97;14.17;;;2.80;99.70;;;;;;4997246;28;20214;-81
2022/03/03 03:59:21;;;;;;;17.37;14.77;;;2.80;99.50;;;;;;4996415;28;20200;-80
2022/03/03 04:01:48;;;;;;;16.47;14.33;;;2.70;99.90;;;;;;4999191;28;20233;-80
2022/03/03 04:04:17;;;;;;;16.40;14.03;;;2.70;99.80;;;;;;5008432;28;20224;-81
2022/03/03 04:06:45;;;;;;;19.20;15.50;;;2.80;99.10;;;;;;4997498;28;20199;-80
2022/03/03 04:09:12;;;;;;;18.97;15.27;;;2.90;98.00;;;;;;4989845;28;20202;-81
2022/03/03 04:11:40;;;;;;;17.87;15.17;;;2.90;98.20;;;;;;5010910;28;20231;-81
2022/03/03 04:14:10;;;;;;;19.80;16.57;;;3.00;98.30;;;;;;4996424;28;20448;-81
2022/03/03 04:16:44;;;;;;;19.60;16.10;;;3.00;97.60;;;;;;5004078;28;20274;-80
2022/03/03 04:19:11;;;;;;;19.43;15.80;;;3.00;97.70;;;;;;4991798;28;20202;-80
2022/03/03 04:21:40;;;;;;;20.23;16.07;;;3.20;97.00;;;;;;4991461;28;20230;-80
2022/03/03 04:24:10;;;;;;;20.10;15.00;;;3.10;96.40;;;;;;4992183;28;20898;-80
2022/03/03 04:26:37;;;;;;;19.83;14.33;;;3.00;96.50;;;;;;5002516;28;20659;-80
2022/03/03 04:29:05;;;;;;;17.77;14.30;;;2.90;98.50;;;;;;4991199;28;20202;-80
2022/03/03 04:31:33;;;;;;;18.53;14.70;;;2.80;99.90;;;;;;4989226;28;20230;-80
2022/03/03 04:34:01;;;;;;;17.27;15.20;;;2.70;99.90;;;;;;4994313;28;20207;-80
2022/03/03 04:36:29;;;;;;;19.43;15.10;;;2.70;99.90;;;;;;4990590;28;20199;-80
2022/03/03 04:38:58;;;;;;;19.13;14.60;;;2.80;99.90;;;;;;4988095;28;20217;-80
2022/03/03 04:41:25;;;;;;;17.73;15.13;;;2.80;99.80;;;;;;5002127;28;20234;-80
2022/03/03 04:43:53;;;;;;;18.40;14.43;;;2.80;99.20;;;;;;5007631;28;20682;-80
2022/03/03 04:46:20;;;;;;;18.03;14.73;;;2.80;99.10;;;;;;5006056;28;20208;-80
2022/03/03 04:48:47;;;;;;;19.93;14.80;;;2.90;98.70;;;;;;4992397;28;20197;-80
2022/03/03 04:51:15;;;;;;;20.53;14.63;;;3.10;98.50;;;;;;4992700;28;20196;-80
2022/03/03 04:53:43;;;;;;;16.53;13.53;;;3.50;97.80;;;;;;4994779;28;20201;-80
2022/03/03 04:56:11;;;;;;;19.47;15.57;;;3.70;97.40;;;;;;4994606;28;20569;-80
2022/03/03 04:58:40;;;;;;;18.43;14.10;;;3.70;95.70;;;;;;4994471;28;20207;-80
2022/03/03 05:01:07;;;;;;;20.43;15.50;;;3.60;95.80;;;;;;4991222;28;20216;-80
2022/03/03 05:03:35;;;;;;;15.53;13.80;;;3.50;95.90;;;;;;5010402;28;20188;-80
2022/03/03 05:06:02;;;;;;;18.83;14.30;;;3.40;95.70;;;;;;4998379;28;20203;-80
2022/03/03 05:08:33;;;;;;;18.27;13.80;;;3.20;95.90;;;;;;4996304;28;20207;-80
2022/03/03 05:11:00;;;;;;;21.10;14.87;;;3.00;96.40;;;;;;5015243;28;20195;-80
2022/03/03 05:13:29;;;;;;;19.27;14.67;;;3.10;96.50;;;;;;4986011;28;20228;-80
2022/03/03 05:15:56;;;;;;;18.33;14.23;;;3.10;96.20;;;;;;4984482;28;20665;-80
2022/03/03 05:18:24;;;;;;;18.37;14.27;;;3.10;96.20;;;;;;5001900;28;20207;-80
2022/03/03 05:20:52;;;;;;;17.70;15.17;;;3.20;96.40;;;;;;5020258;28;20214;-80
2022/03/03 05:23:20;;;;;;;21.27;15.60;;;3.30;96.40;;;;;;5023391;28;20225;-80
2022/03/03 05:25:49;;;;;;;20.53;15.43;;;3.60;95.90;;;;;;4992539;28;20195;-81
2022/03/03 05:28:19;;;;;;;21.53;17.43;;;3.80;95.80;;;;;;5017321;28;20192;-80
2022/03/03 05:30:47;;;;;;;22.90;16.83;;;4.00;94.70;;;;;;4998455;28;20561;-80
2022/03/03 05:33:15;;;;;;;22.27;16.87;;;3.40;94.70;;;;;;4996477;28;20224;-80
2022/03/03 05:35:46;;;;;;;20.00;16.47;;;3.00;95.90;;;;;;5005578;28;20200;-80
2022/03/03 05:38:13;;;;;;;20.03;15.90;;;3.20;96.40;;;;;;4992941;28;20201;-80
2022/03/03 05:40:41;;;;;;;20.93;15.93;;;3.20;96.10;;;;;;5013504;28;20212;-80
2022/03/03 05:43:10;;;;;;;19.47;16.03;;;3.20;96.50;;;;;;5009182;28;20689;-80
2022/03/03 05:45:39;;;;;;;21.77;15.17;;;3.50;96.90;;;;;;5001876;28;20223;-80
2022/03/03 05:48:08;;;;;;;22.33;16.40;;;3.60;96.90;;;;;;4999957;28;20204;-80
2022/03/03 05:50:37;;;;;;;20.47;16.80;;;3.70;96.40;;;;;;5008780;28;20210;-80
2022/03/03 05:53:04;;;;;;;23.20;16.50;;;3.80;96.10;;;;;;5021247;28;20220;-80
2022/03/03 05:55:33;;;;;;;22.50;16.30;;;3.30;95.90;;;;;;5027595;28;20219;-80
2022/03/03 05:58:01;;;;;;;21.17;16.73;;;3.20;96.00;;;;;;4992779;28;20212;-80
2022/03/03 06:00:32;;;;;;;18.77;15.50;;;3.30;96.50;;;;;;4995919;28;20206;-80
2022/03/03 06:03:03;;;;;;;20.87;16.57;;;3.30;96.20;;;;;;5022160;28;20238;-80
2022/03/03 06:05:34;;;;;;;21.87;16.40;;;3.20;96.60;;;;;;5009375;28;20204;-80
2022/03/03 06:08:05;;;;;;;21.43;16.73;;;3.50;97.20;;;;;;5014321;28;20188;-81
2022/03/03 06:10:34;;;;;;;20.67;16.53;;;3.50;96.30;;;;;;5022592;28;20210;-81
2022/03/03 06:13:11;;;;;;;21.27;15.37;;;3.50;96.00;;;;;;5025187;28;20217;-80
2022/03/03 06:15:45;;;;;;;20.27;16.40;;;3.50;96.50;;;;;;5013194;28;20183;-79
2022/03/03 06:18:13;;;;;;;20.67;16.93;;;3.30;95.80;;;;;;4993724;28;20221;-78
2022/03/03 06:20:45;;;;;;;23.37;17.13;;;3.10;96.40;;;;;;5005675;28;20193;-79
2022/03/03 06:23:13;;;;;;;19.53;15.87;;;3.20;96.90;;;;;;5001978;28;20235;-78
2022/03/03 06:25:41;;;;;;;21.30;16.20;;;3.10;96.50;;;;;;4993336;28;20217;-78
2022/03/03 06:28:09;;;;;;;21.77;16.03;;;3.00;97.40;;;;;;4999353;28;20206;-78
2022/03/03 06:30:37;;;;;;;20.40;16.10;;;3.20;97.30;;;;;;5007976;28;20210;-78
2022/03/03 06:33:04;;;;;;;21.60;16.63;;;3.40;97.00;;;;;;4981355;28;20231;-78
2022/03/03 06:35:36;;;;;;;21.00;15.57;;;3.40;96.80;;;;;;4983718;28;20204;-77
2022/03/03 06:38:17;;;;;;;22.33;17.27;;;3.40;96.70;;;;;;5002634;28;20587;-79
2022/03/03 06:40:44;;;;;;;19.97;15.93;;;3.30;96.60;;;;;;5001791;28;20207;-78
2022/03/03 06:43:12;;;;;;;20.63;16.07;;;3.20;96.30;;;;;;4991222;28;20230;-78
2022/03/03 06:45:40;;;;;;;19.03;15.47;;;3.30;96.60;;;;;;5002370;28;20225;-78
2022/03/03 06:48:09;;;;;;;19.77;15.57;;;3.40;96.10;;;;;;4982456;28;20217;-79
2022/03/03 06:50:38;;;;;;;21.10;16.63;;;3.50;96.30;;;;;;5004243;28;20216;-78
2022/03/03 06:53:08;;;;;;;22.20;16.80;;;3.50;95.90;;;;;;4989721;28;20226;-77
2022/03/03 06:55:38;;;;;;;28.93;16.17;;;3.50;96.00;;;;;;5008839;28;20668;-77
2022/03/03 06:58:08;;;;;;;21.47;16.50;;;3.50;96.00;;;;;;4988014;28;20203;-77
2022/03/03 07:00:35;;;;;;;20.57;15.97;;;3.40;96.00;;;;;;4997446;28;20543;-77
2022/03/03 07:03:05;;;;;;;21.53;16.70;;;3.50;96.20;;;;;;4988899;28;20572;-77
2022/03/03 07:05:33;;;;;;;23.37;17.60;;;3.60;96.20;;;;;;5009658;28;20675;-78
2022/03/03 07:08:01;;;;;;;23.03;17.37;;;3.60;96.60;;;;;;5009695;28;20222;-77
2022/03/03 07:10:28;;;;;;;21.23;16.30;;;3.60;96.20;;;;;;5007651;28;20211;-77
2022/03/03 07:12:58;;;;;;;25.47;17.63;;;3.70;96.10;;;;;;4991553;28;20215;-77
2022/03/03 07:15:27;;;;;;;20.77;16.80;;;3.50;95.90;;;;;;4990191;28;20216;-78
2022/03/03 07:18:02;;;;;;;21.20;17.10;;;3.50;96.20;;;;;;5006811;28;20665;-79
2022/03/03 07:20:38;;;;;;;24.67;17.60;;;3.50;96.30;;;;;;4984952;28;20203;-77
2022/03/03 07:23:13;;;;;;;19.87;16.13;;;3.70;96.50;;;;;;4989983;28;20608;-78
2022/03/03 07:25:47;;;;;;;26.20;17.63;;;3.90;96.60;;;;;;4993732;28;20205;-77
2022/03/03 07:28:18;;;;;;;23.87;16.40;;;3.90;96.00;;;;;;4994306;28;20209;-78
2022/03/03 07:30:45;;;;;;;23.33;17.30;;;4.00;95.80;;;;;;4992286;28;20198;-78
2022/03/03 07:33:17;;;;;;;22.97;17.43;;;4.00;95.60;;;;;;4987041;28;20734;-78
2022/03/03 07:35:46;;;;;;;21.40;16.20;;;4.00;95.20;;;;;;5008853;28;20195;-78
2022/03/03 07:38:19;;;;;;;20.77;15.77;;;4.00;95.60;;;;;;4989004;28;20202;-77
2022/03/03 07:40:50;;;;;;;21.80;18.37;;;3.90;95.70;;;;;;4992909;28;20204;-77
2022/03/03 07:43:20;;;;;;;21.40;16.53;;;4.10;95.60;;;;;;5007003;28;20236;-78
2022/03/03 07:45:47;;;;;;;22.37;16.80;;;4.10;94.90;;;;;;5003211;28;20220;-77
2022/03/03 07:48:15;;;;;;;23.40;17.53;;;4.00;95.00;;;;;;4996948;28;20682;-78
2022/03/03 07:50:44;;;;;;;25.60;17.40;;;4.20;95.30;;;;;;5015503;28;20656;-78
2022/03/03 07:53:13;;;;;;;22.73;16.73;;;4.30;95.10;;;;;;5003788;28;20591;-79
2022/03/03 07:55:45;;;;;;;22.27;17.30;;;4.40;94.70;;;;;;4989295;28;20203;-79
2022/03/03 07:58:15;;;;;;;22.77;17.40;;;4.60;95.10;;;;;;5012045;28;20197;-78
2022/03/03 08:00:47;;;;;;;19.90;17.60;;;4.70;94.60;;;;;;4995582;28;20204;-78
2022/03/03 08:03:17;;;;;;;23.53;17.93;;;4.70;94.50;;;;;;4994466;28;20241;-78
2022/03/03 08:05:46;;;;;;;22.33;17.27;;;4.60;93.90;;;;;;5011814;28;20216;-79
2022/03/03 08:08:15;;;;;;;21.53;17.03;;;4.60;94.20;;;;;;4984947;28;20664;-78
2022/03/03 08:10:45;;;;;;;22.23;16.63;;;4.50;94.20;;;;;;5007594;28;20225;-78
2022/03/03 08:13:14;;;;;;;21.37;16.70;;;4.60;94.60;;;;;;5003997;28;20217;-78
2022/03/03 08:15:44;;;;;;;21.73;16.07;;;4.60;94.20;;;;;;4995696;28;20608;-79
2022/03/03 08:18:14;;;;;;;21.50;16.80;;;4.80;94.10;;;;;;4995491;28;20207;-78
2022/03/03 08:20:42;;;;;;;20.13;16.93;;;5.00;93.60;;;;;;4992488;28;20212;-79
2022/03/03 08:23:09;;;;;;;22.87;16.30;;;4.90;93.30;;;;;;4993300;28;20229;-78
2022/03/03 08:25:37;;;;;;;23.23;16.83;;;5.20;93.40;;;;;;4994955;28;20207;-78
2022/03/03 08:28:06;;;;;;;24.97;17.23;;;5.20;93.00;;;;;;4993840;28;20210;-79
2022/03/03 08:30:35;;;;;;;22.37;15.80;;;5.20;92.70;;;;;;5012895;28;20202;-78
2022/03/03 08:33:09;;;;;;;23.27;17.80;;;5.20;92.90;;;;;;5039702;23;20224;-77
2022/03/03 08:35:40;;;;;;;21.40;16.27;;;5.20;93.20;;;;;;5039330;28;20213;-78
2022/03/03 08:38:11;;;;;;;23.23;17.03;;;5.30;92.40;;;;;;5038833;28;20195;-77
2022/03/03 08:40:38;;;;;;;16.63;14.90;;;5.40;92.40;;;;;;5048149;28;20193;-78
2022/03/03 08:43:07;;;;;;;22.90;16.90;;;5.40;92.30;;;;;;5035840;28;20226;-78
2022/03/03 08:45:35;;;;;;;21.33;16.00;;;5.40;92.40;;;;;;5045289;28;20201;-78
2022/03/03 08:48:07;;;;;;;19.87;15.27;;;5.50;92.40;;;;;;5049759;28;20205;-78
2022/03/03 08:50:36;;;;;;;17.30;15.17;;;5.50;91.80;;;;;;5050577;28;20200;-79
2022/03/03 08:53:06;;;;;;;17.73;15.27;;;5.60;91.60;;;;;;5053155;28;20212;-78
2022/03/03 08:55:35;;;;;;;18.27;15.20;;;5.60;91.40;;;;;;5044633;28;20205;-79
2022/03/03 08:58:02;;;;;;;19.13;14.77;;;5.70;91.10;;;;;;5048640;28;20206;-79
2022/03/03 09:00:31;;;;;;;19.67;15.00;;;5.80;91.00;;;;;;5046859;28;20202;-78
2022/03/03 09:02:59;;;;;;;17.73;14.07;;;5.90;90.80;;;;;;5044017;28;20569;-79
2022/03/03 09:05:28;;;;;;;18.13;15.07;;;5.90;91.10;;;;;;5050219;28;20213;-79
2022/03/03 09:07:55;;;;;;;19.10;14.73;;;6.30;90.70;;;;;;5049831;28;20194;-79
2022/03/03 09:10:23;;;;;;;19.90;15.60;;;6.50;89.70;;;;;;5050196;28;20206;-79
2022/03/03 09:12:51;;;;;;;18.07;14.90;;;6.40;88.70;;;;;;5043131;28;20219;-78
2022/03/03 09:15:18;;;;;;;19.50;15.23;;;6.40;90.00;;;;;;5049245;28;21891;-79
2022/03/03 09:17:46;;;;;;;21.53;14.80;;;6.60;89.70;;;;;;5049268;28;20454;-79
2022/03/03 09:20:15;;;;;;;17.13;14.90;;;6.60;87.70;;;;;;5047888;28;20209;-79
2022/03/03 09:22:46;;;;;;;18.53;14.77;;;6.80;87.80;;;;;;5039736;28;20215;-82
2022/03/03 09:25:14;;;;;;;18.17;13.53;;;6.90;85.90;;;;;;5046010;28;20194;-78
2022/03/03 09:27:42;;;;;;;16.40;13.80;;;6.80;85.50;;;;;;5041901;28;20199;-79
2022/03/03 09:30:11;;;;;;;16.87;14.23;;;6.90;85.40;;;;;;5047311;28;20217;-78
2022/03/03 09:32:39;;;;;;;18.37;14.20;;;6.90;84.90;;;;;;5040888;28;20225;-78
2022/03/03 09:35:07;;;;;;;20.40;15.00;;;6.80;84.80;;;;;;5038387;28;20205;-78
2022/03/03 09:37:38;;;;;;;17.37;14.47;;;6.90;85.20;;;;;;5040459;28;20213;-78
2022/03/03 09:40:08;;;;;;;18.80;13.80;;;7.10;83.20;;;;;;5047239;28;20210;-79
2022/03/03 09:42:36;;;;;;;18.03;13.67;;;7.20;82.10;;;;;;5048180;28;20229;-79
2022/03/03 09:45:05;;;;;;;18.47;14.57;;;7.50;80.60;;;;;;5055547;28;20206;-79
2022/03/03 09:47:35;;;;;;;15.40;13.07;;;7.70;79.10;;;;;;5052723;28;20210;-79
2022/03/03 09:50:03;;;;;;;17.30;13.27;;;7.70;78.10;;;;;;5043328;28;20207;-79
2022/03/03 09:52:31;;;;;;;15.80;12.80;;;7.80;77.00;;;;;;5039464;28;20225;-79
2022/03/03 09:55:06;;;;;;;17.40;12.33;;;8.10;76.70;;;;;;5042713;28;20203;-78
2022/03/03 09:57:35;;;;;;;15.50;13.13;;;8.30;75.40;;;;;;5040315;28;20198;-79
2022/03/03 10:00:04;;;;;;;15.23;12.77;;;8.40;74.20;;;;;;5037747;28;20206;-78
2022/03/03 10:02:56;;;;;;;17.77;13.10;;;8.40;69.20;;;;;;5045511;28;20221;-78
2022/03/03 10:05:35;;;;;;;17.10;12.53;;;8.50;69.30;;;;;;5035619;28;20195;-79
2022/03/03 10:08:04;;;;;;;15.57;13.50;;;8.50;69.50;;;;;;5045378;28;20198;-79
2022/03/03 10:10:34;;;;;;;17.50;13.33;;;8.60;68.80;;;;;;5057351;28;20560;-79
2022/03/03 10:13:04;;;;;;;16.07;12.77;;;8.70;67.90;;;;;;5042116;28;20214;-79
2022/03/03 10:15:33;;;;;;;15.40;13.17;;;8.90;66.80;;;;;;5043056;28;20202;-79
2022/03/03 10:18:05;;;;;;;17.00;13.13;;;8.90;65.70;;;;;;5044704;28;20229;-80
2022/03/03 10:20:38;;;;;;;16.27;13.40;;;8.90;65.20;;;;;;5040249;28;20210;-79
2022/03/03 10:23:11;;;;;;;16.63;13.73;;;9.00;65.70;;;;;;5037781;28;20226;-79
2022/03/03 10:25:42;;;;;;;16.97;13.83;;;9.00;67.00;;;;;;5041658;28;20195;-79
2022/03/03 10:28:17;;;;;;;15.53;12.90;;;9.10;66.20;;;;;;5044396;28;20209;-79
2022/03/03 10:30:53;;;;;;;14.57;13.00;;;9.10;64.80;;;;;;5048154;28;20227;-80
2022/03/03 10:33:25;;;;;;;14.17;12.60;;;9.20;63.90;;;;;;5039213;28;20221;-79
2022/03/03 10:36:08;;;;;;;14.53;13.00;;;9.30;64.30;;;;;;5042655;28;20198;-79
2022/03/03 10:38:46;;;;;;;13.67;12.27;;;9.40;63.20;;;;;;5039484;28;20198;-79
2022/03/03 10:41:28;;;;;;;14.17;12.23;;;9.40;62.50;;;;;;5045417;28;20631;-79
2022/03/03 10:43:57;;;;;;;15.07;12.27;;;9.50;63.70;;;;;;5056609;28;20233;-79
2022/03/03 10:46:24;;;;;;;15.27;12.83;;;9.70;62.80;;;;;;5057182;28;20551;-79
2022/03/03 10:48:52;;;;;;;14.00;12.30;;;9.80;62.40;;;;;;5035937;28;20186;-79
2022/03/03 10:51:24;;;;;;;15.20;12.27;;;9.90;62.30;;;;;;5064859;28;20225;-80
2022/03/03 10:53:55;;;;;;;13.17;11.63;;;10.00;61.50;;;;;;5049088;28;20213;-78
2022/03/03 10:56:23;;;;;;;14.00;12.50;;;10.20;59.90;;;;;;5047111;28;20207;-78
2022/03/03 10:58:53;;;;;;;15.33;13.20;;;10.20;58.80;;;;;;5036652;28;20198;-79
2022/03/03 11:01:24;;;;;;;15.50;13.10;;;10.50;59.10;;;;;;5055194;28;20210;-79
2022/03/03 11:03:53;;;;;;;14.20;12.67;;;10.40;59.80;;;;;;5046091;28;20215;-79
2022/03/03 11:06:22;;;;;;;13.50;11.77;;;10.50;59.40;;;;;;5059853;28;20561;-79
2022/03/03 11:08:52;;;;;;;14.15;11.93;;;10.70;57.60;;;;;;5044935;28;20199;-79
2022/03/03 11:11:22;;;;;;;13.63;11.40;;;10.40;58.20;;;;;;5064738;28;20203;-79
2022/03/03 11:13:51;;;;;;;17.10;13.15;;;10.80;56.50;;;;;;5041793;28;20210;-79
2022/03/03 11:16:20;;;;;;;15.95;13.27;;;10.90;57.20;;;;;;5050480;28;20194;-79
2022/03/03 11:18:49;;;;;;;15.57;12.23;;;11.10;57.80;;;;;;5045295;28;20198;-79
2022/03/03 11:21:17;;;;;;;15.18;12.38;;;11.10;56.60;;;;;;5062972;28;20205;-79
2022/03/03 11:23:46;;;;;;;15.32;12.68;;;11.20;55.80;;;;;;5036853;28;20214;-80
2022/03/03 11:26:23;;;;;;;13.90;12.48;;;11.40;55.10;;;;;;5042486;28;20198;-79
2022/03/03 11:29:04;;;;;;;16.10;12.65;;;11.30;54.30;;;;;;5037638;28;20194;-79
2022/03/03 11:31:33;;;;;;;14.10;12.55;;;11.50;54.10;;;;;;5052212;28;20194;-79
2022/03/03 11:34:29;;;;;;;13.75;12.35;;;11.20;53.80;;;;;;5042980;28;20230;-78
2022/03/03 11:37:02;;;;;;;13.15;11.68;;;11.30;53.80;;;;;;5045972;28;20202;-79
2022/03/03 11:39:45;;;;;;;12.75;10.98;;;11.50;52.60;;;;;;5063594;28;20210;-79
2022/03/03 11:42:24;;;;;;;13.88;11.35;;;11.40;51.80;;;;;;5037848;28;20225;-79
2022/03/03 11:44:54;;;;;;;12.52;11.23;;;11.90;53.80;;;;;;5044589;28;20218;-80
2022/03/03 11:47:23;;;;;;;13.18;11.48;;;11.70;51.80;;;;;;5047218;28;20205;-79
2022/03/03 11:50:13;;;;;;;12.55;11.35;;;12.00;50.80;;;;;;5046421;28;20218;-80
2022/03/03 11:52:42;;;;;;;11.85;10.68;;;12.10;49.30;;;;;;5043017;28;20222;-79
2022/03/03 11:55:30;;;;;;;11.52;10.32;;;12.50;48.80;;;;;;5040043;28;20199;-81
2022/03/03 11:58:02;;;;;;;12.00;10.40;;;13.20;48.20;;;;;;5038014;28;20206;-80
2022/03/03 12:00:30;;;;;;;11.77;10.15;;;13.20;46.70;;;;;;5058855;28;20206;-79
2022/03/03 12:03:02;;;;;;;11.25;10.05;;;13.40;47.70;;;;;;5043111;28;20230;-80
2022/03/03 12:05:45;;;;;;;11.93;10.60;;;13.60;45.40;;;;;;5043630;28;20222;-80
2022/03/03 12:08:33;;;;;;;12.18;10.68;;;14.00;44.40;;;;;;5045415;28;20198;-80
2022/03/03 12:11:16;;;;;;;11.88;10.68;;;13.60;45.00;;;;;;5044046;28;20203;-80
2022/03/03 12:13:50;;;;;;;12.32;11.02;;;13.70;45.00;;;;;;5042526;28;20214;-79
2022/03/03 12:16:24;;;;;;;12.10;10.90;;;14.20;44.10;;;;;;5041516;28;20202;-80
2022/03/03 12:19:09;;;;;;;14.10;11.00;;;13.90;44.00;;;;;;5039991;28;20198;-79
2022/03/03 12:21:40;;;;;;;15.10;11.65;;;14.60;44.80;;;;;;5042090;28;20194;-80
2022/03/03 12:24:31;;;;;;;13.07;11.73;;;14.30;43.70;;;;;;5037396;28;20581;-80
2022/03/03 12:27:11;;;;;;;13.27;11.88;;;14.80;43.70;;;;;;5059914;28;20194;-80
2022/03/03 12:29:56;;;;;;;12.15;10.95;;;14.60;44.10;;;;;;5043204;28;20201;-80
2022/03/03 12:32:38;;;;;;;12.70;11.40;;;15.70;43.10;;;;;;5042641;28;20238;-79
2022/03/03 12:35:10;;;;;;;13.00;11.63;;;16.50;42.00;;;;;;5042919;28;20645;-80
2022/03/03 12:37:45;;;;;;;14.50;12.25;;;15.90;40.10;;;;;;5043800;28;20284;-80
2022/03/03 12:40:15;;;;;;;12.27;11.05;;;15.90;40.90;;;;;;5039779;28;20213;-80
2022/03/03 12:42:44;;;;;;;12.05;10.82;;;16.20;40.00;;;;;;5036540;28;20222;-80
2022/03/03 12:45:17;;;;;;;12.65;11.35;;;16.00;41.00;;;;;;5042121;28;20218;-80
2022/03/03 12:47:48;;;;;;;13.00;11.52;;;16.40;40.10;;;;;;5039880;28;20199;-80
2022/03/03 12:50:19;;;;;;;12.45;11.18;;;16.40;39.80;;;;;;5043675;28;20195;-80
2022/03/03 12:52:59;;;;;;;12.95;11.57;;;16.90;39.80;;;;;;5034574;28;20250;-80